sensor_id;sensor_type;location;lat;lon;timestamp;P1;durP1;ratioP1;P2;durP2;ratioP2
60610;SDS011;46439;51.164;13.572;2024-03-08T00:00:07;23.80;;;16.70;;
60610;SDS011;46439;51.164;13.572;2024-03-08T00:02:39;27.50;;;16.40;;
60610;SDS011;46439;51.164;13.572;2024-03-08T00:05:08;25.40;;;16.60;;
60610;SDS011;46439;51.164;13.572;2024-03-08T00:07:36;26.50;;;16.10;;
60610;SDS011;46439;51.164;13.572;2024-03-08T00:10:06;27.10;;;16.30;;
60610;SDS011;46439;51.164;13.572;2024-03-08T00:12:39;24.80;;;16.00;;
60610;SDS011;46439;51.164;13.572;2024-03-08T00:15:11;27.00;;;16.90;;
60610;SDS011;46439;51.164;13.572;2024-03-08T00:17:40;27.70;;;16.70;;
60610;SDS011;46439;51.164;13.572;2024-03-08T00:20:09;26.90;;;16.60;;
60610;SDS011;46439;51.164;13.572;2024-03-08T00:22:39;25.90;;;16.10;;
60610;SDS011;46439;51.164;13.572;2024-03-08T00:25:08;25.50;;;16.00;;
60610;SDS011;46439;51.164;13.572;2024-03-08T00:27:38;23.20;;;15.50;;
60610;SDS011;46439;51.164;13.572;2024-03-08T00:30:08;27.50;;;16.00;;
60610;SDS011;46439;51.164;13.572;2024-03-08T00:32:40;27.20;;;16.10;;
60610;SDS011;46439;51.164;13.572;2024-03-08T00:35:09;26.40;;;16.20;;
60610;SDS011;46439;51.164;13.572;2024-03-08T00:37:39;27.60;;;17.00;;
60610;SDS011;46439;51.164;13.572;2024-03-08T00:40:09;28.20;;;17.50;;
60610;SDS011;46439;51.164;13.572;2024-03-08T00:42:38;29.30;;;17.60;;
60610;SDS011;46439;51.164;13.572;2024-03-08T00:45:08;27.90;;;17.40;;
60610;SDS011;46439;51.164;13.572;2024-03-08T00:47:37;32.10;;;19.90;;
60610;SDS011;46439;51.164;13.572;2024-03-08T00:50:06;31.90;;;19.50;;
60610;SDS011;46439;51.164;13.572;2024-03-08T00:52:35;30.80;;;18.90;;
60610;SDS011;46439;51.164;13.572;2024-03-08T00:55:04;30.10;;;19.00;;
60610;SDS011;46439;51.164;13.572;2024-03-08T00:57:36;31.10;;;18.00;;
60610;SDS011;46439;51.164;13.572;2024-03-08T01:00:06;35.00;;;20.60;;
60610;SDS011;46439;51.164;13.572;2024-03-08T01:02:38;29.80;;;18.30;;
60610;SDS011;46439;51.164;13.572;2024-03-08T01:05:07;27.40;;;16.70;;
60610;SDS011;46439;51.164;13.572;2024-03-08T01:07:35;26.20;;;16.40;;
60610;SDS011;46439;51.164;13.572;2024-03-08T01:10:04;27.60;;;16.70;;
60610;SDS011;46439;51.164;13.572;2024-03-08T01:12:36;26.90;;;17.00;;
60610;SDS011;46439;51.164;13.572;2024-03-08T01:15:06;26.90;;;16.20;;
60610;SDS011;46439;51.164;13.572;2024-03-08T01:17:35;33.40;;;17.20;;
60610;SDS011;46439;51.164;13.572;2024-03-08T01:20:04;27.60;;;17.40;;
60610;SDS011;46439;51.164;13.572;2024-03-08T01:22:34;27.40;;;16.90;;
60610;SDS011;46439;51.164;13.572;2024-03-08T01:25:02;27.60;;;17.20;;
60610;SDS011;46439;51.164;13.572;2024-03-08T01:27:31;26.60;;;16.70;;
60610;SDS011;46439;51.164;13.572;2024-03-08T01:30:01;27.80;;;17.90;;
60610;SDS011;46439;51.164;13.572;2024-03-08T01:32:30;26.10;;;17.70;;
60610;SDS011;46439;51.164;13.572;2024-03-08T01:35:00;26.10;;;17.20;;
60610;SDS011;46439;51.164;13.572;2024-03-08T01:37:29;30.10;;;16.30;;
60610;SDS011;46439;51.164;13.572;2024-03-08T01:39:57;26.80;;;16.80;;
60610;SDS011;46439;51.164;13.572;2024-03-08T01:42:25;26.60;;;16.70;;
60610;SDS011;46439;51.164;13.572;2024-03-08T01:44:53;30.20;;;17.10;;
60610;SDS011;46439;51.164;13.572;2024-03-08T01:47:22;27.90;;;16.10;;
60610;SDS011;46439;51.164;13.572;2024-03-08T01:49:50;29.00;;;16.70;;
60610;SDS011;46439;51.164;13.572;2024-03-08T01:52:18;27.20;;;16.00;;
60610;SDS011;46439;51.164;13.572;2024-03-08T01:54:49;27.50;;;16.30;;
60610;SDS011;46439;51.164;13.572;2024-03-08T01:57:17;28.30;;;16.90;;
60610;SDS011;46439;51.164;13.572;2024-03-08T01:59:45;27.60;;;17.10;;
60610;SDS011;46439;51.164;13.572;2024-03-08T02:02:15;27.50;;;17.40;;
60610;SDS011;46439;51.164;13.572;2024-03-08T02:04:44;28.50;;;16.60;;
60610;SDS011;46439;51.164;13.572;2024-03-08T02:07:12;27.30;;;17.10;;
60610;SDS011;46439;51.164;13.572;2024-03-08T02:09:40;28.70;;;17.20;;
60610;SDS011;46439;51.164;13.572;2024-03-08T02:12:08;27.40;;;17.30;;
60610;SDS011;46439;51.164;13.572;2024-03-08T02:14:38;27.50;;;17.10;;
60610;SDS011;46439;51.164;13.572;2024-03-08T02:17:06;27.30;;;17.80;;
60610;SDS011;46439;51.164;13.572;2024-03-08T02:19:35;33.00;;;18.70;;
60610;SDS011;46439;51.164;13.572;2024-03-08T02:22:03;29.40;;;17.90;;
60610;SDS011;46439;51.164;13.572;2024-03-08T02:24:32;28.60;;;17.80;;
60610;SDS011;46439;51.164;13.572;2024-03-08T02:27:01;32.20;;;17.30;;
60610;SDS011;46439;51.164;13.572;2024-03-08T02:29:29;31.10;;;18.60;;
60610;SDS011;46439;51.164;13.572;2024-03-08T02:32:00;28.40;;;18.00;;
60610;SDS011;46439;51.164;13.572;2024-03-08T02:34:29;29.80;;;17.00;;
60610;SDS011;46439;51.164;13.572;2024-03-08T02:36:57;32.00;;;17.80;;
60610;SDS011;46439;51.164;13.572;2024-03-08T02:39:26;29.40;;;17.70;;
60610;SDS011;46439;51.164;13.572;2024-03-08T02:41:54;29.90;;;18.00;;
60610;SDS011;46439;51.164;13.572;2024-03-08T02:44:22;30.90;;;18.10;;
60610;SDS011;46439;51.164;13.572;2024-03-08T02:46:50;28.90;;;17.80;;
60610;SDS011;46439;51.164;13.572;2024-03-08T02:49:21;31.90;;;17.10;;
60610;SDS011;46439;51.164;13.572;2024-03-08T02:51:49;29.40;;;17.40;;
60610;SDS011;46439;51.164;13.572;2024-03-08T02:54:18;31.50;;;18.40;;
60610;SDS011;46439;51.164;13.572;2024-03-08T02:56:47;32.80;;;18.60;;
60610;SDS011;46439;51.164;13.572;2024-03-08T02:59:17;30.60;;;17.20;;
60610;SDS011;46439;51.164;13.572;2024-03-08T03:01:45;31.50;;;18.60;;
60610;SDS011;46439;51.164;13.572;2024-03-08T03:04:13;28.80;;;17.50;;
60610;SDS011;46439;51.164;13.572;2024-03-08T03:06:41;30.70;;;18.00;;
60610;SDS011;46439;51.164;13.572;2024-03-08T03:09:09;31.40;;;17.90;;
60610;SDS011;46439;51.164;13.572;2024-03-08T03:11:37;28.80;;;17.60;;
60610;SDS011;46439;51.164;13.572;2024-03-08T03:14:06;31.60;;;17.30;;
60610;SDS011;46439;51.164;13.572;2024-03-08T03:16:35;27.50;;;17.30;;
60610;SDS011;46439;51.164;13.572;2024-03-08T03:19:03;32.10;;;17.90;;
60610;SDS011;46439;51.164;13.572;2024-03-08T03:21:32;31.70;;;19.80;;
60610;SDS011;46439;51.164;13.572;2024-03-08T03:24:02;31.60;;;18.20;;
60610;SDS011;46439;51.164;13.572;2024-03-08T03:26:36;29.50;;;18.10;;
60610;SDS011;46439;51.164;13.572;2024-03-08T03:29:07;29.90;;;17.60;;
60610;SDS011;46439;51.164;13.572;2024-03-08T03:31:37;32.20;;;18.90;;
60610;SDS011;46439;51.164;13.572;2024-03-08T03:34:06;34.30;;;18.90;;
60610;SDS011;46439;51.164;13.572;2024-03-08T03:36:35;30.50;;;18.80;;
60610;SDS011;46439;51.164;13.572;2024-03-08T03:39:04;29.30;;;18.10;;
60610;SDS011;46439;51.164;13.572;2024-03-08T03:41:37;29.30;;;17.50;;
60610;SDS011;46439;51.164;13.572;2024-03-08T03:44:05;28.10;;;17.60;;
60610;SDS011;46439;51.164;13.572;2024-03-08T03:46:33;30.50;;;17.50;;
60610;SDS011;46439;51.164;13.572;2024-03-08T03:49:02;30.60;;;17.40;;
60610;SDS011;46439;51.164;13.572;2024-03-08T03:51:30;30.70;;;18.20;;
60610;SDS011;46439;51.164;13.572;2024-03-08T03:53:58;30.40;;;18.10;;
60610;SDS011;46439;51.164;13.572;2024-03-08T03:56:26;31.80;;;17.60;;
60610;SDS011;46439;51.164;13.572;2024-03-08T03:58:54;32.90;;;18.40;;
60610;SDS011;46439;51.164;13.572;2024-03-08T04:01:23;31.60;;;17.60;;
60610;SDS011;46439;51.164;13.572;2024-03-08T04:03:51;28.40;;;17.40;;
60610;SDS011;46439;51.164;13.572;2024-03-08T04:06:19;28.40;;;17.30;;
60610;SDS011;46439;51.164;13.572;2024-03-08T04:08:49;28.90;;;17.30;;
60610;SDS011;46439;51.164;13.572;2024-03-08T04:11:17;32.90;;;19.60;;
60610;SDS011;46439;51.164;13.572;2024-03-08T04:13:45;34.10;;;19.80;;
60610;SDS011;46439;51.164;13.572;2024-03-08T04:16:13;32.80;;;19.10;;
60610;SDS011;46439;51.164;13.572;2024-03-08T04:18:42;32.40;;;19.10;;
60610;SDS011;46439;51.164;13.572;2024-03-08T04:21:10;35.60;;;19.40;;
60610;SDS011;46439;51.164;13.572;2024-03-08T04:23:38;32.30;;;19.20;;
60610;SDS011;46439;51.164;13.572;2024-03-08T04:26:06;33.70;;;19.60;;
60610;SDS011;46439;51.164;13.572;2024-03-08T04:28:35;34.80;;;19.40;;
60610;SDS011;46439;51.164;13.572;2024-03-08T04:31:03;31.00;;;19.10;;
60610;SDS011;46439;51.164;13.572;2024-03-08T04:33:33;30.50;;;19.20;;
60610;SDS011;46439;51.164;13.572;2024-03-08T04:36:04;33.60;;;18.10;;
60610;SDS011;46439;51.164;13.572;2024-03-08T04:38:34;32.30;;;18.30;;
60610;SDS011;46439;51.164;13.572;2024-03-08T04:41:02;33.60;;;19.10;;
60610;SDS011;46439;51.164;13.572;2024-03-08T04:43:31;34.30;;;19.60;;
60610;SDS011;46439;51.164;13.572;2024-03-08T04:45:59;38.40;;;20.60;;
60610;SDS011;46439;51.164;13.572;2024-03-08T04:48:30;30.50;;;19.10;;
60610;SDS011;46439;51.164;13.572;2024-03-08T04:50:58;34.60;;;20.30;;
60610;SDS011;46439;51.164;13.572;2024-03-08T04:53:26;34.70;;;19.90;;
60610;SDS011;46439;51.164;13.572;2024-03-08T04:55:55;34.00;;;19.30;;
60610;SDS011;46439;51.164;13.572;2024-03-08T04:58:24;38.90;;;21.30;;
60610;SDS011;46439;51.164;13.572;2024-03-08T05:00:52;34.20;;;20.30;;
60610;SDS011;46439;51.164;13.572;2024-03-08T05:03:21;38.00;;;21.20;;
60610;SDS011;46439;51.164;13.572;2024-03-08T05:05:52;35.40;;;20.50;;
60610;SDS011;46439;51.164;13.572;2024-03-08T05:08:20;38.10;;;21.20;;
60610;SDS011;46439;51.164;13.572;2024-03-08T05:10:48;37.80;;;20.50;;
60610;SDS011;46439;51.164;13.572;2024-03-08T05:13:16;36.50;;;20.50;;
60610;SDS011;46439;51.164;13.572;2024-03-08T05:15:47;33.20;;;21.00;;
60610;SDS011;46439;51.164;13.572;2024-03-08T05:18:18;35.00;;;20.50;;
60610;SDS011;46439;51.164;13.572;2024-03-08T05:20:48;35.40;;;19.70;;
60610;SDS011;46439;51.164;13.572;2024-03-08T05:23:17;39.20;;;21.20;;
60610;SDS011;46439;51.164;13.572;2024-03-08T05:25:46;34.70;;;21.30;;
60610;SDS011;46439;51.164;13.572;2024-03-08T05:28:14;36.40;;;19.80;;
60610;SDS011;46439;51.164;13.572;2024-03-08T05:30:42;37.00;;;19.90;;
60610;SDS011;46439;51.164;13.572;2024-03-08T05:33:10;38.60;;;21.20;;
60610;SDS011;46439;51.164;13.572;2024-03-08T05:35:40;35.30;;;21.20;;
60610;SDS011;46439;51.164;13.572;2024-03-08T05:38:09;33.20;;;20.40;;
60610;SDS011;46439;51.164;13.572;2024-03-08T05:40:39;35.90;;;21.40;;
60610;SDS011;46439;51.164;13.572;2024-03-08T05:43:09;38.70;;;22.40;;
60610;SDS011;46439;51.164;13.572;2024-03-08T05:45:38;40.40;;;21.30;;
60610;SDS011;46439;51.164;13.572;2024-03-08T05:48:07;40.30;;;22.00;;
60610;SDS011;46439;51.164;13.572;2024-03-08T05:50:35;36.50;;;21.20;;
60610;SDS011;46439;51.164;13.572;2024-03-08T05:53:03;38.20;;;22.50;;
60610;SDS011;46439;51.164;13.572;2024-03-08T05:55:34;37.00;;;22.00;;
60610;SDS011;46439;51.164;13.572;2024-03-08T05:58:09;35.70;;;21.30;;
60610;SDS011;46439;51.164;13.572;2024-03-08T06:00:38;35.80;;;20.40;;
60610;SDS011;46439;51.164;13.572;2024-03-08T06:03:06;34.40;;;21.50;;
60610;SDS011;46439;51.164;13.572;2024-03-08T06:05:34;37.30;;;21.60;;
60610;SDS011;46439;51.164;13.572;2024-03-08T06:08:02;35.90;;;21.70;;
60610;SDS011;46439;51.164;13.572;2024-03-08T06:10:34;37.10;;;21.70;;
60610;SDS011;46439;51.164;13.572;2024-03-08T06:13:02;34.40;;;20.70;;
60610;SDS011;46439;51.164;13.572;2024-03-08T06:15:30;36.20;;;21.70;;
60610;SDS011;46439;51.164;13.572;2024-03-08T06:17:58;34.60;;;20.40;;
60610;SDS011;46439;51.164;13.572;2024-03-08T06:20:26;37.70;;;21.20;;
60610;SDS011;46439;51.164;13.572;2024-03-08T06:22:54;38.50;;;21.30;;
60610;SDS011;46439;51.164;13.572;2024-03-08T06:25:22;42.50;;;22.10;;
60610;SDS011;46439;51.164;13.572;2024-03-08T06:27:51;38.50;;;21.50;;
60610;SDS011;46439;51.164;13.572;2024-03-08T06:30:19;37.40;;;21.50;;
60610;SDS011;46439;51.164;13.572;2024-03-08T06:32:48;36.90;;;21.90;;
60610;SDS011;46439;51.164;13.572;2024-03-08T06:35:16;37.10;;;21.60;;
60610;SDS011;46439;51.164;13.572;2024-03-08T06:37:46;38.70;;;22.50;;
60610;SDS011;46439;51.164;13.572;2024-03-08T06:40:15;36.80;;;21.90;;
60610;SDS011;46439;51.164;13.572;2024-03-08T06:42:44;38.10;;;22.30;;
60610;SDS011;46439;51.164;13.572;2024-03-08T06:45:19;37.50;;;21.20;;
60610;SDS011;46439;51.164;13.572;2024-03-08T06:47:49;38.30;;;22.50;;
60610;SDS011;46439;51.164;13.572;2024-03-08T06:50:24;42.60;;;22.30;;
60610;SDS011;46439;51.164;13.572;2024-03-08T06:52:52;39.50;;;22.50;;
60610;SDS011;46439;51.164;13.572;2024-03-08T06:55:20;34.30;;;22.30;;
60610;SDS011;46439;51.164;13.572;2024-03-08T06:57:48;34.00;;;21.70;;
60610;SDS011;46439;51.164;13.572;2024-03-08T07:00:17;38.10;;;21.20;;
60610;SDS011;46439;51.164;13.572;2024-03-08T07:02:47;37.00;;;22.20;;
60610;SDS011;46439;51.164;13.572;2024-03-08T07:05:15;37.50;;;21.70;;
60610;SDS011;46439;51.164;13.572;2024-03-08T07:07:43;35.70;;;22.40;;
60610;SDS011;46439;51.164;13.572;2024-03-08T07:10:14;35.60;;;21.70;;
60610;SDS011;46439;51.164;13.572;2024-03-08T07:12:43;41.00;;;22.40;;
60610;SDS011;46439;51.164;13.572;2024-03-08T07:15:11;36.40;;;22.60;;
60610;SDS011;46439;51.164;13.572;2024-03-08T07:17:41;37.40;;;22.30;;
60610;SDS011;46439;51.164;13.572;2024-03-08T07:20:11;41.00;;;23.50;;
60610;SDS011;46439;51.164;13.572;2024-03-08T07:22:41;39.80;;;24.20;;
60610;SDS011;46439;51.164;13.572;2024-03-08T07:25:10;40.20;;;23.10;;
60610;SDS011;46439;51.164;13.572;2024-03-08T07:27:51;41.60;;;24.20;;
60610;SDS011;46439;51.164;13.572;2024-03-08T07:30:20;47.80;;;25.50;;
60610;SDS011;46439;51.164;13.572;2024-03-08T07:33:10;39.40;;;23.00;;
60610;SDS011;46439;51.164;13.572;2024-03-08T07:35:38;37.20;;;22.60;;
60610;SDS011;46439;51.164;13.572;2024-03-08T07:38:07;42.70;;;22.70;;
60610;SDS011;46439;51.164;13.572;2024-03-08T07:40:36;38.70;;;23.10;;
60610;SDS011;46439;51.164;13.572;2024-03-08T07:43:07;40.30;;;23.90;;
60610;SDS011;46439;51.164;13.572;2024-03-08T07:45:37;31.10;;;16.90;;
60610;SDS011;46439;51.164;13.572;2024-03-08T07:48:06;39.60;;;22.70;;
60610;SDS011;46439;51.164;13.572;2024-03-08T07:50:37;43.00;;;22.10;;
60610;SDS011;46439;51.164;13.572;2024-03-08T07:53:05;39.50;;;21.80;;
60610;SDS011;46439;51.164;13.572;2024-03-08T07:55:34;38.20;;;22.00;;
60610;SDS011;46439;51.164;13.572;2024-03-08T07:58:02;41.30;;;22.80;;
60610;SDS011;46439;51.164;13.572;2024-03-08T08:00:31;38.10;;;23.80;;
60610;SDS011;46439;51.164;13.572;2024-03-08T08:02:59;34.30;;;18.10;;
60610;SDS011;46439;51.164;13.572;2024-03-08T08:05:27;37.90;;;21.30;;
60610;SDS011;46439;51.164;13.572;2024-03-08T08:07:56;36.00;;;23.00;;
60610;SDS011;46439;51.164;13.572;2024-03-08T08:10:25;37.80;;;23.60;;
60610;SDS011;46439;51.164;13.572;2024-03-08T08:12:55;35.30;;;21.50;;
60610;SDS011;46439;51.164;13.572;2024-03-08T08:15:23;34.40;;;21.80;;
60610;SDS011;46439;51.164;13.572;2024-03-08T08:17:51;37.10;;;23.00;;
60610;SDS011;46439;51.164;13.572;2024-03-08T08:20:19;33.20;;;21.60;;
60610;SDS011;46439;51.164;13.572;2024-03-08T08:22:49;34.60;;;20.70;;
60610;SDS011;46439;51.164;13.572;2024-03-08T08:25:17;37.00;;;22.70;;
60610;SDS011;46439;51.164;13.572;2024-03-08T08:27:46;32.60;;;19.60;;
60610;SDS011;46439;51.164;13.572;2024-03-08T08:30:15;32.20;;;19.30;;
60610;SDS011;46439;51.164;13.572;2024-03-08T08:32:43;35.10;;;21.40;;
60610;SDS011;46439;51.164;13.572;2024-03-08T08:35:13;38.00;;;21.10;;
60610;SDS011;46439;51.164;13.572;2024-03-08T08:37:41;33.30;;;20.20;;
60610;SDS011;46439;51.164;13.572;2024-03-08T08:40:11;34.60;;;21.20;;
60610;SDS011;46439;51.164;13.572;2024-03-08T08:42:44;36.70;;;20.40;;
60610;SDS011;46439;51.164;13.572;2024-03-08T08:45:12;29.60;;;19.30;;
60610;SDS011;46439;51.164;13.572;2024-03-08T08:47:43;33.70;;;18.70;;
60610;SDS011;46439;51.164;13.572;2024-03-08T08:50:11;29.50;;;18.90;;
60610;SDS011;46439;51.164;13.572;2024-03-08T08:52:39;31.40;;;17.60;;
60610;SDS011;46439;51.164;13.572;2024-03-08T08:55:11;29.50;;;17.90;;
60610;SDS011;46439;51.164;13.572;2024-03-08T08:57:41;31.80;;;17.90;;
60610;SDS011;46439;51.164;13.572;2024-03-08T09:00:10;29.00;;;15.60;;
60610;SDS011;46439;51.164;13.572;2024-03-08T09:02:41;27.90;;;17.80;;
60610;SDS011;46439;51.164;13.572;2024-03-08T09:05:09;31.70;;;18.10;;
60610;SDS011;46439;51.164;13.572;2024-03-08T09:07:37;29.90;;;17.40;;
60610;SDS011;46439;51.164;13.572;2024-03-08T09:10:07;26.60;;;16.40;;
60610;SDS011;46439;51.164;13.572;2024-03-08T09:12:36;28.30;;;17.40;;
60610;SDS011;46439;51.164;13.572;2024-03-08T09:15:06;29.00;;;16.80;;
60610;SDS011;46439;51.164;13.572;2024-03-08T09:17:36;28.80;;;17.00;;
60610;SDS011;46439;51.164;13.572;2024-03-08T09:20:07;32.50;;;17.40;;
60610;SDS011;46439;51.164;13.572;2024-03-08T09:22:36;28.80;;;17.00;;
60610;SDS011;46439;51.164;13.572;2024-03-08T09:25:07;28.30;;;16.80;;
60610;SDS011;46439;51.164;13.572;2024-03-08T09:27:36;29.60;;;16.60;;
60610;SDS011;46439;51.164;13.572;2024-03-08T09:30:08;28.90;;;16.90;;
60610;SDS011;46439;51.164;13.572;2024-03-08T09:32:39;27.80;;;16.50;;
60610;SDS011;46439;51.164;13.572;2024-03-08T09:35:10;27.00;;;15.70;;
60610;SDS011;46439;51.164;13.572;2024-03-08T09:37:38;26.70;;;16.10;;
60610;SDS011;46439;51.164;13.572;2024-03-08T09:40:08;25.10;;;15.40;;
60610;SDS011;46439;51.164;13.572;2024-03-08T09:42:36;23.70;;;14.60;;
60610;SDS011;46439;51.164;13.572;2024-03-08T09:45:05;26.80;;;15.00;;
60610;SDS011;46439;51.164;13.572;2024-03-08T09:47:42;24.60;;;15.40;;
60610;SDS011;46439;51.164;13.572;2024-03-08T09:50:11;27.80;;;16.30;;
60610;SDS011;46439;51.164;13.572;2024-03-08T09:52:39;25.90;;;15.70;;
60610;SDS011;46439;51.164;13.572;2024-03-08T09:55:10;22.80;;;14.70;;
60610;SDS011;46439;51.164;13.572;2024-03-08T09:57:39;25.20;;;16.00;;
60610;SDS011;46439;51.164;13.572;2024-03-08T10:00:20;25.40;;;16.00;;
60610;SDS011;46439;51.164;13.572;2024-03-08T10:02:50;26.60;;;15.90;;
60610;SDS011;46439;51.164;13.572;2024-03-08T10:05:20;25.10;;;15.40;;
60610;SDS011;46439;51.164;13.572;2024-03-08T10:07:49;23.40;;;15.10;;
60610;SDS011;46439;51.164;13.572;2024-03-08T10:10:17;27.20;;;16.40;;
60610;SDS011;46439;51.164;13.572;2024-03-08T10:12:46;26.10;;;17.10;;
60610;SDS011;46439;51.164;13.572;2024-03-08T10:15:16;26.40;;;15.70;;
60610;SDS011;46439;51.164;13.572;2024-03-08T10:17:44;24.50;;;15.10;;
60610;SDS011;46439;51.164;13.572;2024-03-08T10:20:15;27.60;;;15.80;;
60610;SDS011;46439;51.164;13.572;2024-03-08T10:22:44;27.60;;;15.60;;
60610;SDS011;46439;51.164;13.572;2024-03-08T10:25:13;27.10;;;16.30;;
60610;SDS011;46439;51.164;13.572;2024-03-08T10:27:41;24.50;;;15.00;;
60610;SDS011;46439;51.164;13.572;2024-03-08T10:30:10;24.90;;;14.80;;
60610;SDS011;46439;51.164;13.572;2024-03-08T10:32:40;27.70;;;15.10;;
60610;SDS011;46439;51.164;13.572;2024-03-08T10:35:08;23.60;;;14.20;;
60610;SDS011;46439;51.164;13.572;2024-03-08T10:37:44;23.70;;;13.60;;
60610;SDS011;46439;51.164;13.572;2024-03-08T10:40:15;22.80;;;15.40;;
60610;SDS011;46439;51.164;13.572;2024-03-08T10:42:50;24.20;;;14.60;;
60610;SDS011;46439;51.164;13.572;2024-03-08T10:45:23;21.70;;;13.50;;
60610;SDS011;46439;51.164;13.572;2024-03-08T10:48:00;22.80;;;13.70;;
60610;SDS011;46439;51.164;13.572;2024-03-08T10:50:36;20.50;;;12.30;;
60610;SDS011;46439;51.164;13.572;2024-03-08T10:53:07;20.90;;;12.20;;
60610;SDS011;46439;51.164;13.572;2024-03-08T10:55:38;22.60;;;13.60;;
60610;SDS011;46439;51.164;13.572;2024-03-08T10:58:09;20.90;;;13.30;;
60610;SDS011;46439;51.164;13.572;2024-03-08T11:03:48;22.70;;;13.90;;
60610;SDS011;46439;51.164;13.572;2024-03-08T11:06:30;21.20;;;12.40;;
60610;SDS011;46439;51.164;13.572;2024-03-08T11:09:10;21.10;;;13.40;;
60610;SDS011;46439;51.164;13.572;2024-03-08T11:11:53;24.90;;;12.80;;
60610;SDS011;46439;51.164;13.572;2024-03-08T11:14:48;18.50;;;12.40;;
60610;SDS011;46439;51.164;13.572;2024-03-08T11:17:25;22.10;;;13.10;;
60610;SDS011;46439;51.164;13.572;2024-03-08T11:20:12;20.50;;;13.50;;
60610;SDS011;46439;51.164;13.572;2024-03-08T11:22:42;21.80;;;13.30;;
60610;SDS011;46439;51.164;13.572;2024-03-08T11:25:36;22.10;;;12.90;;
60610;SDS011;46439;51.164;13.572;2024-03-08T11:28:13;19.20;;;11.60;;
60610;SDS011;46439;51.164;13.572;2024-03-08T11:30:44;23.20;;;13.30;;
60610;SDS011;46439;51.164;13.572;2024-03-08T11:33:34;18.90;;;12.40;;
60610;SDS011;46439;51.164;13.572;2024-03-08T11:36:11;18.40;;;12.20;;
60610;SDS011;46439;51.164;13.572;2024-03-08T11:38:43;19.90;;;12.50;;
60610;SDS011;46439;51.164;13.572;2024-03-08T11:41:15;20.50;;;12.80;;
60610;SDS011;46439;51.164;13.572;2024-03-08T11:43:44;19.10;;;12.00;;
60610;SDS011;46439;51.164;13.572;2024-03-08T11:46:13;20.90;;;13.10;;
60610;SDS011;46439;51.164;13.572;2024-03-08T11:48:43;17.20;;;11.50;;
60610;SDS011;46439;51.164;13.572;2024-03-08T11:51:14;19.50;;;12.60;;
60610;SDS011;46439;51.164;13.572;2024-03-08T11:53:45;20.00;;;12.50;;
60610;SDS011;46439;51.164;13.572;2024-03-08T11:56:16;19.70;;;12.10;;
60610;SDS011;46439;51.164;13.572;2024-03-08T11:58:53;20.70;;;12.40;;
60610;SDS011;46439;51.164;13.572;2024-03-08T12:01:23;19.30;;;11.80;;
60610;SDS011;46439;51.164;13.572;2024-03-08T12:03:53;20.00;;;12.60;;
60610;SDS011;46439;51.164;13.572;2024-03-08T12:06:25;19.20;;;11.90;;
60610;SDS011;46439;51.164;13.572;2024-03-08T12:08:53;17.70;;;11.30;;
60610;SDS011;46439;51.164;13.572;2024-03-08T12:11:21;20.00;;;11.80;;
60610;SDS011;46439;51.164;13.572;2024-03-08T12:13:50;17.20;;;11.20;;
60610;SDS011;46439;51.164;13.572;2024-03-08T12:16:20;21.40;;;13.50;;
60610;SDS011;46439;51.164;13.572;2024-03-08T12:18:50;22.80;;;15.80;;
60610;SDS011;46439;51.164;13.572;2024-03-08T12:21:22;25.40;;;15.90;;
60610;SDS011;46439;51.164;13.572;2024-03-08T12:24:03;28.10;;;17.20;;
60610;SDS011;46439;51.164;13.572;2024-03-08T12:26:35;29.80;;;19.30;;
60610;SDS011;46439;51.164;13.572;2024-03-08T12:29:16;31.10;;;20.20;;
60610;SDS011;46439;51.164;13.572;2024-03-08T12:31:49;30.40;;;19.50;;
60610;SDS011;46439;51.164;13.572;2024-03-08T12:34:20;35.90;;;22.70;;
60610;SDS011;46439;51.164;13.572;2024-03-08T12:36:48;34.30;;;22.00;;
60610;SDS011;46439;51.164;13.572;2024-03-08T12:39:20;30.90;;;19.50;;
60610;SDS011;46439;51.164;13.572;2024-03-08T12:41:53;28.90;;;19.60;;
60610;SDS011;46439;51.164;13.572;2024-03-08T12:44:24;31.40;;;20.60;;
60610;SDS011;46439;51.164;13.572;2024-03-08T12:46:52;29.20;;;19.90;;
60610;SDS011;46439;51.164;13.572;2024-03-08T12:49:20;30.90;;;18.10;;
60610;SDS011;46439;51.164;13.572;2024-03-08T12:51:48;28.80;;;20.20;;
60610;SDS011;46439;51.164;13.572;2024-03-08T12:54:18;28.30;;;19.60;;
60610;SDS011;46439;51.164;13.572;2024-03-08T12:56:49;30.90;;;19.40;;
60610;SDS011;46439;51.164;13.572;2024-03-08T12:59:20;27.30;;;18.20;;
60610;SDS011;46439;51.164;13.572;2024-03-08T13:01:48;31.50;;;18.80;;
60610;SDS011;46439;51.164;13.572;2024-03-08T13:04:17;26.40;;;17.90;;
60610;SDS011;46439;51.164;13.572;2024-03-08T13:06:47;28.10;;;18.80;;
60610;SDS011;46439;51.164;13.572;2024-03-08T13:09:16;31.20;;;19.50;;
60610;SDS011;46439;51.164;13.572;2024-03-08T13:11:46;27.90;;;19.10;;
60610;SDS011;46439;51.164;13.572;2024-03-08T13:14:14;27.60;;;18.90;;
60610;SDS011;46439;51.164;13.572;2024-03-08T13:16:43;31.40;;;17.70;;
60610;SDS011;46439;51.164;13.572;2024-03-08T13:19:14;30.40;;;20.40;;
60610;SDS011;46439;51.164;13.572;2024-03-08T13:21:42;29.20;;;20.30;;
60610;SDS011;46439;51.164;13.572;2024-03-08T13:24:15;31.80;;;21.30;;
60610;SDS011;46439;51.164;13.572;2024-03-08T13:26:45;24.30;;;14.90;;
60610;SDS011;46439;51.164;13.572;2024-03-08T13:29:13;29.70;;;21.10;;
60610;SDS011;46439;51.164;13.572;2024-03-08T13:31:44;31.30;;;21.10;;
60610;SDS011;46439;51.164;13.572;2024-03-08T13:34:19;29.10;;;19.60;;
60610;SDS011;46439;51.164;13.572;2024-03-08T13:36:55;31.90;;;20.50;;
60610;SDS011;46439;51.164;13.572;2024-03-08T13:39:26;31.10;;;21.10;;
60610;SDS011;46439;51.164;13.572;2024-03-08T13:41:58;33.70;;;21.40;;
60610;SDS011;46439;51.164;13.572;2024-03-08T13:44:26;32.10;;;20.30;;
60610;SDS011;46439;51.164;13.572;2024-03-08T13:46:54;29.40;;;20.00;;
60610;SDS011;46439;51.164;13.572;2024-03-08T13:49:24;30.00;;;20.00;;
60610;SDS011;46439;51.164;13.572;2024-03-08T13:51:52;28.80;;;18.10;;
60610;SDS011;46439;51.164;13.572;2024-03-08T13:54:21;29.80;;;19.20;;
60610;SDS011;46439;51.164;13.572;2024-03-08T13:56:49;28.70;;;19.90;;
60610;SDS011;46439;51.164;13.572;2024-03-08T13:59:20;29.00;;;19.70;;
60610;SDS011;46439;51.164;13.572;2024-03-08T14:01:49;28.40;;;19.30;;
60610;SDS011;46439;51.164;13.572;2024-03-08T14:04:17;28.40;;;19.60;;
60610;SDS011;46439;51.164;13.572;2024-03-08T14:06:45;30.90;;;19.50;;
60610;SDS011;46439;51.164;13.572;2024-03-08T14:09:13;28.30;;;18.40;;
60610;SDS011;46439;51.164;13.572;2024-03-08T14:11:43;32.00;;;19.80;;
60610;SDS011;46439;51.164;13.572;2024-03-08T14:14:11;31.20;;;19.50;;
60610;SDS011;46439;51.164;13.572;2024-03-08T14:16:40;23.30;;;16.40;;
60610;SDS011;46439;51.164;13.572;2024-03-08T14:19:09;30.00;;;19.80;;
60610;SDS011;46439;51.164;13.572;2024-03-08T14:21:38;26.10;;;17.80;;
60610;SDS011;46439;51.164;13.572;2024-03-08T14:24:08;26.40;;;16.70;;
60610;SDS011;46439;51.164;13.572;2024-03-08T14:26:36;27.40;;;16.60;;